sensor_id;sensor_type;location;lat;lon;timestamp;pressure;altitude;pressure_sealevel;temperature;humidity
3832;BME280;12460;42.662;23.288;2023-02-10T00:01:01;96286.13;;;-3.13;53.46
3832;BME280;12460;42.662;23.288;2023-02-10T00:16:08;96273.59;;;-3.26;53.29
3832;BME280;12460;42.662;23.288;2023-02-10T00:31:15;96269.63;;;-3.25;53.35
3832;BME280;12460;42.662;23.288;2023-02-10T00:46:22;96255.50;;;-3.40;53.50
3832;BME280;12460;42.662;23.288;2023-02-10T01:01:27;96242.09;;;-3.50;53.71
3832;BME280;12460;42.662;23.288;2023-02-10T01:16:32;96241.19;;;-3.60;53.74
3832;BME280;12460;42.662;23.288;2023-02-10T01:31:36;96214.34;;;-3.81;53.93
3832;BME280;12460;42.662;23.288;2023-02-10T01:46:41;96221.06;;;-3.82;54.77
3832;BME280;12460;42.662;23.288;2023-02-10T02:01:46;96205.56;;;-3.89;55.21
3832;BME280;12460;42.662;23.288;2023-02-10T02:32:18;96185.31;;;-3.95;55.61
3832;BME280;12460;42.662;23.288;2023-02-10T03:03:02;96173.53;;;-4.08;54.87
3832;BME280;12460;42.662;23.288;2023-02-10T03:18:07;96181.44;;;-4.10;54.79
3832;BME280;12460;42.662;23.288;2023-02-10T03:33:12;96167.25;;;-4.21;54.94
3832;BME280;12460;42.662;23.288;2023-02-10T03:48:18;96153.84;;;-4.19;55.08
3832;BME280;12460;42.662;23.288;2023-02-10T04:03:23;96150.28;;;-4.32;54.92
3832;BME280;12460;42.662;23.288;2023-02-10T04:18:28;96151.88;;;-4.47;55.28
3832;BME280;12460;42.662;23.288;2023-02-10T04:33:33;96150.78;;;-4.50;55.39
3832;BME280;12460;42.662;23.288;2023-02-10T04:48:38;96161.59;;;-4.59;55.56
3832;BME280;12460;42.662;23.288;2023-02-10T05:03:43;96160.00;;;-4.72;55.95
3832;BME280;12460;42.662;23.288;2023-02-10T05:18:48;96184.50;;;-4.65;55.97
3832;BME280;12460;42.662;23.288;2023-02-10T05:33:52;96204.72;;;-4.59;55.60
3832;BME280;12460;42.662;23.288;2023-02-10T05:48:57;96223.22;;;-4.47;55.52
3832;BME280;12460;42.662;23.288;2023-02-10T06:04:01;96215.03;;;-1.86;50.41
3832;BME280;12460;42.662;23.288;2023-02-10T06:19:06;96239.31;;;1.10;44.49
3832;BME280;12460;42.662;23.288;2023-02-10T06:34:11;96249.94;;;2.68;40.82
3832;BME280;12460;42.662;23.288;2023-02-10T06:49:16;96258.59;;;3.98;38.28
3832;BME280;12460;42.662;23.288;2023-02-10T07:04:21;96277.28;;;4.58;35.91
3832;BME280;12460;42.662;23.288;2023-02-10T07:19:26;96254.78;;;4.36;35.61
3832;BME280;12460;42.662;23.288;2023-02-10T07:34:31;96248.19;;;4.59;35.48
3832;BME280;12460;42.662;23.288;2023-02-10T07:49:38;96243.78;;;4.99;34.31
3832;BME280;12460;42.662;23.288;2023-02-10T08:04:43;96262.28;;;6.43;31.77
3832;BME280;12460;42.662;23.288;2023-02-10T08:19:48;96244.38;;;6.94;31.55
3832;BME280;12460;42.662;23.288;2023-02-10T08:34:53;96243.13;;;7.95;29.17
3832;BME280;12460;42.662;23.288;2023-02-10T08:49:57;96239.22;;;9.29;28.36
3832;BME280;12460;42.662;23.288;2023-02-10T09:05:02;96231.81;;;9.91;26.65
3832;BME280;12460;42.662;23.288;2023-02-10T09:20:13;96206.78;;;10.79;25.94
3832;BME280;12460;42.662;23.288;2023-02-10T09:35:17;96212.91;;;8.51;27.20
3832;BME280;12460;42.662;23.288;2023-02-10T09:51:04;96202.34;;;8.73;27.06
3832;BME280;12460;42.662;23.288;2023-02-10T10:06:18;96173.63;;;10.53;25.14
3832;BME280;12460;42.662;23.288;2023-02-10T10:21:30;96158.34;;;10.48;25.34
3832;BME280;12460;42.662;23.288;2023-02-10T10:36:49;96147.63;;;11.16;25.09
3832;BME280;12460;42.662;23.288;2023-02-10T10:51:56;96118.75;;;10.97;24.59
3832;BME280;12460;42.662;23.288;2023-02-10T11:07:01;96109.53;;;10.65;24.52
3832;BME280;12460;42.662;23.288;2023-02-10T11:22:16;96091.88;;;11.14;24.54
3832;BME280;12460;42.662;23.288;2023-02-10T11:37:27;96071.69;;;10.97;24.81
3832;BME280;12460;42.662;23.288;2023-02-10T11:52:37;96065.38;;;10.91;24.97
3832;BME280;12460;42.662;23.288;2023-02-10T12:23:34;96029.59;;;10.73;24.71
3832;BME280;12460;42.662;23.288;2023-02-10T12:39:14;96021.91;;;10.05;25.39
3832;BME280;12460;42.662;23.288;2023-02-10T12:54:39;96007.94;;;8.89;26.65
3832;BME280;12460;42.662;23.288;2023-02-10T13:09:57;96009.34;;;9.01;27.27
3832;BME280;12460;42.662;23.288;2023-02-10T13:40:53;96015.88;;;7.00;28.97
3832;BME280;12460;42.662;23.288;2023-02-10T14:11:42;96003.72;;;5.98;30.84
3832;BME280;12460;42.662;23.288;2023-02-10T14:26:49;96006.91;;;5.63;32.90
3832;BME280;12460;42.662;23.288;2023-02-10T14:41:57;95987.38;;;4.99;33.82
3832;BME280;12460;42.662;23.288;2023-02-10T14:57:02;95991.38;;;4.50;35.42
3832;BME280;12460;42.662;23.288;2023-02-10T15:12:18;96006.72;;;4.34;36.00
3832;BME280;12460;42.662;23.288;2023-02-10T15:27:25;96007.94;;;4.02;37.80
3832;BME280;12460;42.662;23.288;2023-02-10T15:42:31;96022.03;;;3.67;39.46
3832;BME280;12460;42.662;23.288;2023-02-10T15:57:37;96041.03;;;3.28;41.19
3832;BME280;12460;42.662;23.288;2023-02-10T16:12:41;96051.97;;;2.77;42.65
3832;BME280;12460;42.662;23.288;2023-02-10T16:27:47;96063.59;;;2.46;42.93
3832;BME280;12460;42.662;23.288;2023-02-10T16:42:51;96069.84;;;2.27;42.61
3832;BME280;12460;42.662;23.288;2023-02-10T16:57:57;96075.97;;;2.16;43.07
3832;BME280;12460;42.662;23.288;2023-02-10T17:13:03;96085.81;;;2.02;43.34
3832;BME280;12460;42.662;23.288;2023-02-10T17:28:08;96095.53;;;1.83;42.81
3832;BME280;12460;42.662;23.288;2023-02-10T17:43:14;96106.13;;;1.70;42.65
3832;BME280;12460;42.662;23.288;2023-02-10T17:58:19;96119.84;;;1.50;43.61
3832;BME280;12460;42.662;23.288;2023-02-10T18:13:24;96122.69;;;1.41;43.84
3832;BME280;12460;42.662;23.288;2023-02-10T18:28:29;96132.78;;;1.44;42.51
3832;BME280;12460;42.662;23.288;2023-02-10T18:43:34;96147.91;;;1.43;43.00
3832;BME280;12460;42.662;23.288;2023-02-10T18:58:39;96152.88;;;1.30;43.40
3832;BME280;12460;42.662;23.288;2023-02-10T19:13:44;96172.63;;;1.23;43.88
3832;BME280;12460;42.662;23.288;2023-02-10T19:28:49;96180.41;;;1.10;43.67
3832;BME280;12460;42.662;23.288;2023-02-10T19:43:54;96175.19;;;1.03;42.85
3832;BME280;12460;42.662;23.288;2023-02-10T19:59:01;96180.19;;;0.90;43.17
3832;BME280;12460;42.662;23.288;2023-02-10T20:14:06;96199.91;;;0.83;43.60
3832;BME280;12460;42.662;23.288;2023-02-10T20:29:13;96192.22;;;0.78;43.31
3832;BME280;12460;42.662;23.288;2023-02-10T20:44:17;96194.25;;;0.68;44.00
3832;BME280;12460;42.662;23.288;2023-02-10T20:59:22;96196.25;;;0.58;44.02
3832;BME280;12460;42.662;23.288;2023-02-10T21:14:27;96185.53;;;0.51;45.19
3832;BME280;12460;42.662;23.288;2023-02-10T21:29:34;96174.19;;;0.40;45.77
3832;BME280;12460;42.662;23.288;2023-02-10T21:44:39;96158.81;;;0.30;45.84
3832;BME280;12460;42.662;23.288;2023-02-10T21:59:45;96174.53;;;0.24;46.63
3832;BME280;12460;42.662;23.288;2023-02-10T22:14:51;96179.44;;;0.20;46.53
3832;BME280;12460;42.662;23.288;2023-02-10T22:30:00;96181.00;;;0.03;47.50
3832;BME280;12460;42.662;23.288;2023-02-10T22:45:05;96187.47;;;0.00;47.11
3832;BME280;12460;42.662;23.288;2023-02-10T23:00:21;96174.56;;;-0.03;46.98
3832;BME280;12460;42.662;23.288;2023-02-10T23:15:26;96167.97;;;-0.15;47.57
3832;BME280;12460;42.662;23.288;2023-02-10T23:30:32;96175.47;;;-0.33;48.25
3832;BME280;12460;42.662;23.288;2023-02-10T23:45:37;96178.69;;;-0.44;47.17
